Data for 08/09/2006

Time Sea-Level Adjusted Pressure Absolute Pressure Temperature Relative Humidity Dew Point   
(mb) (inHg) (mb) (inHg) (C) (F) (%) (C) (F)
00:05 1020 30.12 849 25.07 19.5 67 37 4.5 40.2
00:10 1020 30.12 849 25.07 19.3 66.7 38 4.6 40.3
00:15 1020 30.12 849 25.07 19.3 66.7 38 4.6 40.3
00:20 1020 30.12 849 25.07 19.3 66.7 37 4.5 40.1
00:25 1020 30.12 849 25.07 19.1 66.4 38 4.8 40.6
00:30 1020 30.12 849 25.07 18.9 65.9 47 7.5 45.5
00:35 1020 30.12 849 25.07 17.2 63 46 5.7 42.3
00:40 1020 30.12 849 25.07 16.5 61.6 48 5.6 42
00:45 1020 30.12 849 25.07 16 60.7 50 5.6 42
00:50 1020 30.12 849 25.07 15.5 59.8 51 5.3 41.6
00:55 1020 30.12 849 25.07 15.7 60.3 50 5.3 41.5
01:00 1020 30.12 849 25.07 16 60.7 49 5.3 41.6
01:05 1020 30.12 849 25.07 15.7 60.2 50 5.5 41.9
01:10 1020 30.12 849 25.07 15.4 59.7 52 5.7 42.3
01:15 1020 30.12 849 25.07 15.6 60.2 50 5.3 41.5
01:20 1020 30.12 849 25.07 15.5 59.9 49 4.9 40.9
01:25 1020 30.12 849 25.07 15.9 60.6 53 6.4 43.5
01:30 1020 30.12 849 25.07 15.3 59.5 51 5.4 41.8
01:35 1020 30.12 849 25.07 15.1 59.1 52 5.5 41.8
01:40 1020 30.12 850 25.1 14.6 58.3 61 7.1 44.8
01:45 1020 30.12 849 25.07 13.8 56.8 57 5.4 41.7
01:50 1020 30.12 849 25.07 13.6 56.4 57 5.3 41.5
01:55 1020 30.12 849 25.07 13.6 56.5 61 6.3 43.3
02:00 1020 30.12 849 25.07 13.4 56.1 58 5.3 41.6
02:05 1020 30.12 850 25.1 13.1 55.6 60 5.6 42.1
02:10 1020 30.12 850 25.1 12.8 55.1 67 6.8 44.3
02:15 1020 30.12 850 25.1 12.7 54.8 61 5.5 41.9
02:20 1020 30.12 850 25.1 12.4 54.3 61 5.2 41.3
02:25 1020 30.12 849 25.07 12.7 54.8 63 6 42.7
02:30 1020 30.12 849 25.07 13 55.4 55 4.4 39.9
02:35 1020 30.12 849 25.07 13.7 56.7 55 5 40.9
02:40 1020 30.12 849 25.07 14 57.1 60 6.3 43.3
02:45 1020 30.12 849 25.07 14.3 57.8 52 4.8 40.6
02:50 1020 30.12 849 25.07 14.1 57.4 53 4.7 40.4
02:55 1020 30.12 849 25.07 14.1 57.3 62 7 44.6
03:00 1020 30.12 849 25.07 13.8 56.8 55 4.9 40.8
03:05 1020 30.12 849 25.07 13.5 56.3 55 4.9 40.7
03:10 1020 30.12 849 25.07 13.6 56.4 55 4.7 40.4
03:15 1020 30.12 849 25.07 13.6 56.4 55 4.8 40.6
03:20 1020 30.12 849 25.07 13.5 56.2 56 5 41.1
03:25 1020 30.12 849 25.07 13.2 55.8 58 5.2 41.3
03:30 1020 30.12 849 25.07 12.7 54.9 60 5.2 41.4
03:35 1020 30.12 849 25.07 12.4 54.3 60 4.9 40.8
03:40 1020 30.12 849 25.07 12.5 54.5 63 5.7 42.3
03:45 1020 30.12 849 25.07 12.4 54.3 61 5.2 41.3
03:50 1020 30.12 849 25.07 12.4 54.3 60 4.9 40.7
03:55 1020 30.12 849 25.07 12.5 54.6 59 4.8 40.6
04:00 1020 30.12 849 25.07 12.5 54.5 60 4.9 40.9
04:05 1020 30.12 849 25.07 12.5 54.4 61 5.1 41.1
04:10 1020 30.12 849 25.07 12.6 54.6 62 5.5 41.9
04:15 1020 30.12 849 25.07 12.4 54.3 62 5.3 41.5
04:20 1020 30.12 849 25.07 12.1 53.8 63 5.3 41.6
04:25 1020 30.12 849 25.07 12.2 53.9 62 5.3 41.5
04:30 1020 30.12 849 25.07 12.4 54.2 61 5.2 41.4
04:35 1020 30.12 849 25.07 12.4 54.4 62 5.4 41.7
04:40 1020 30.12 849 25.07 12.3 54.2 62 5.2 41.3
04:45 1020 30.12 849 25.07 12.3 54.1 61 5.1 41.2
04:50 1020 30.12 849 25.07 12.3 54.2 61 5.1 41.2
04:55 1020 30.12 849 25.07 12.5 54.4 60 4.9 40.8
05:00 1020 30.12 849 25.07 12.6 54.6 59 4.9 40.8
05:05 1020 30.12 849 25.07 12.7 54.9 59 4.9 40.8
05:10 1020 30.12 849 25.07 12.7 54.8 59 5 41
05:15 1020 30.12 849 25.07 12.6 54.7 60 5.1 41.2
05:20 1020 30.12 849 25.07 12.6 54.8 59 4.8 40.7
05:25 1020 30.12 849 25.07 12.7 54.8 59 4.9 40.8
05:30 1020 30.12 849 25.07 12.7 54.8 58 4.7 40.4
05:35 1020 30.12 849 25.07 12.9 55.2 57 4.6 40.3
05:40 1020 30.12 849 25.07 13.2 55.7 55 4.4 39.9
05:45 1020 30.12 849 25.07 13.9 57.1 53 4.5 40.1
05:50 1020 30.12 849 25.07 13.8 56.8 52 4.2 39.6
05:55 1020 30.12 849 25.07 13.6 56.5 53 4.2 39.6
06:00 1020 30.12 849 25.07 13.8 56.9 53 4.6 40.2
06:05 1020 30.12 849 25.07 13.6 56.5 60 6.1 43
06:10 1020 30.12 849 25.07 13.7 56.6 55 4.9 40.9
06:15 1020 30.12 849 25.07 13.5 56.2 56 4.8 40.7
06:20 1020 30.12 849 25.07 13.4 56.1 56 4.8 40.6
06:25 1020 30.12 849 25.07 13.5 56.3 60 6 42.8
06:30 1020 30.12 849 25.07 13.5 56.2 55 4.7 40.5
06:35 1020 30.12 849 25.07 13.5 56.2 54 4.5 40.2
06:40 1020 30.12 849 25.07 13.7 56.7 53 4.3 39.7
06:45 1020 30.12 849 25.07 13.9 57.1 54 4.8 40.6
06:50 1020 30.12 850 25.1 14.2 57.5 53 4.9 40.7
06:55 1020 30.12 850 25.1 14.1 57.3 54 4.9 40.8
07:00 1020 30.12 850 25.1 13.8 56.8 56 5.2 41.4
07:05 1020 30.12 849 25.07 13.3 56 58 5.2 41.4
07:10 1020 30.12 850 25.1 13 55.3 59 5.2 41.4
07:15 1020 30.12 850 25.1 12.7 54.9 60 5.3 41.5
07:20 1020 30.12 850 25.1 12.6 54.6 61 5.3 41.5
07:25 1020 30.12 850 25.1 12.6 54.6 63 5.7 42.3
07:30 1021 30.15 850 25.1 12.5 54.6 63 5.6 42.1
07:35 1021 30.15 850 25.1 12.7 54.9 62 5.7 42.2
07:40 1021 30.15 850 25.1 12.9 55.2 61 5.6 42.1
07:45 1021 30.15 850 25.1 13.4 56.1 59 5.7 42.3
07:50 1021 30.15 850 25.1 13.7 56.7 59 5.8 42.5
07:55 1021 30.15 850 25.1 13.8 56.8 60 6.3 43.3
08:00 1021 30.15 850 25.1 13.9 57.1 59 6.1 42.9
08:05 1021 30.15 850 25.1 14.1 57.4 57 5.9 42.6
08:10 1021 30.15 850 25.1 14.2 57.6 56 5.7 42.3
08:15 1021 30.15 850 25.1 14.5 58.2 55 5.7 42.2
08:20 1021 30.15 850 25.1 14.6 58.3 56 6 42.9
08:25 1021 30.15 850 25.1 15.1 59.2 55 6.1 43.1
08:30 1021 30.15 850 25.1 15.6 60.1 54 6.3 43.3
08:35 1021 30.15 850 25.1 15.7 60.3 53 6.3 43.4
08:40 1021 30.15 851 25.13 15.5 59.9 54 6.3 43.3
08:45 1021 30.15 850 25.1 16 60.8 52 6.1 43.1
08:50 1021 30.15 850 25.1 16.5 61.6 50 6.1 43
08:55 1021 30.15 850 25.1 16.7 62.1 49 6.1 43
09:00 1021 30.15 851 25.13 16.7 62.1 49 6 42.8
09:05 1021 30.15 851 25.13 16.9 62.4 48 5.9 42.7
09:10 1021 30.15 851 25.13 17.3 63.2 48 6.3 43.3
09:15 1022 30.18 851 25.13 18.1 64.5 45 6.1 43
09:20 1021 30.15 851 25.13 18.3 64.9 43 5.5 41.9
09:25 1021 30.15 851 25.13 17.9 64.2 43 5.3 41.5
09:30 1021 30.15 851 25.13 18.1 64.6 43 5.5 41.9
09:35 1021 30.15 851 25.13 18.4 65.1 42 5.4 41.6
09:40 1021 30.15 850 25.1 18.9 66 42 5.7 42.2
09:45 1021 30.15 850 25.1 19.2 66.6 40 5.4 41.7
09:50 1021 30.15 850 25.1 19.8 67.6 38 5.3 41.6
09:55 1021 30.15 850 25.1 20.6 69.1 38 6 42.9
10:00 1021 30.15 850 25.1 20.6 69 37 5.6 42
10:05 1021 30.15 850 25.1 20.5 68.8 38 5.8 42.5
10:10 1021 30.15 850 25.1 19.8 67.6 39 5.6 42.1
10:15 1021 30.15 850 25.1 20.2 68.4 36 4.7 40.4
10:20 1021 30.15 850 25.1 20.3 68.6 37 5.5 41.9
10:25 1021 30.15 850 25.1 20.4 68.7 38 5.8 42.4
10:30 1021 30.15 850 25.1 20.5 68.8 36 5.2 41.3
10:35 1021 30.15 850 25.1 20.5 68.9 36 5.1 41.1
10:40 1021 30.15 850 25.1 20.8 69.4 36 5.1 41.3
10:45 1021 30.15 850 25.1 20.8 69.5 35 5.2 41.3
10:50 1021 30.15 850 25.1 20.7 69.2 37 5.5 41.9
10:55 1021 30.15 850 25.1 20.9 69.6 38 6.2 43.1
11:00 1021 30.15 850 25.1 21 69.9 36 5.6 42.1
11:05 1021 30.15 850 25.1 21.7 71 35 5.9 42.6
11:10 1021 30.15 850 25.1 22.1 71.7 34 5.7 42.3
11:15 1021 30.15 850 25.1 22.2 71.9 34 5.8 42.4
11:20 1021 30.15 850 25.1 22.5 72.4 33 5.5 41.8
11:25 1021 30.15 850 25.1 22.8 73 34 6.2 43.1
11:30 1021 30.15 850 25.1 22.7 72.9 32 5.5 41.9
11:35 1021 30.15 850 25.1 23 73.4 33 6.1 42.9
11:40 1021 30.15 850 25.1 23.3 73.9 32 6.1 42.9
11:45 1021 30.15 850 25.1 23.2 73.8 32 5.8 42.5
11:50 1021 30.15 850 25.1 23.2 73.7 31 5.4 41.6
11:55 1021 30.15 850 25.1 23.6 74.5 30 5.4 41.7
12:00 1021 30.15 850 25.1 23.4 74.1 31 5.3 41.6
12:05 1021 30.15 850 25.1 23.5 74.2 32 5.8 42.5
12:10 1021 30.15 850 25.1 24 75.2 31 6.3 43.3
12:15 1021 30.15 850 25.1 23.6 74.4 33 6.5 43.7
12:20 1021 30.15 850 25.1 23.6 74.5 32 6.3 43.3
12:25 1021 30.15 850 25.1 23.8 74.8 32 6.2 43.2
12:30 1021 30.15 850 25.1 24 75.2 32 6.4 43.5
12:35 1021 30.15 850 25.1 24.3 75.7 32 6.7 44
12:40 1021 30.15 850 25.1 24.4 75.8 32 6.8 44.2
12:45 1021 30.15 850 25.1 24.3 75.8 30 6 42.8
12:50 1021 30.15 850 25.1 24.7 76.4 29 5.5 41.8
12:55 1021 30.15 850 25.1 24.7 76.5 29 5.9 42.7
13:00 1021 30.15 850 25.1 24.8 76.6 29 6 42.7
13:05 1021 30.15 850 25.1 24.5 76.2 28 5.3 41.5
13:10 1021 30.15 850 25.1 24.9 76.9 29 5.8 42.4
13:15 1021 30.15 850 25.1 25.5 77.9 28 5.9 42.6
13:20 1021 30.15 850 25.1 26 78.8 27 5.9 42.6
13:25 1021 30.15 850 25.1 26.1 79 27 5.7 42.3
13:30 1021 30.15 850 25.1 25.7 78.2 26 5.2 41.4
13:35 1021 30.15 850 25.1 25.6 78 26 5.1 41.2
13:40 1021 30.15 850 25.1 25.7 78.3 26 5.1 41.2
13:45 1021 30.15 850 25.1 25.7 78.2 27 5.4 41.8
13:50 1020 30.12 850 25.1 25.2 77.4 27 5.2 41.3
13:55 1020 30.12 850 25.1 25.3 77.6 26 4.7 40.5
14:00 1020 30.12 850 25.1 25.9 78.6 27 5.6 42.1
14:05 1020 30.12 850 25.1 26.3 79.3 25 4.9 40.8
14:10 1020 30.12 850 25.1 25.5 78 27 5.3 41.5
14:15 1020 30.12 850 25.1 25.6 78.1 25 4.3 39.7
14:20 1020 30.12 849 25.07 26.2 79.2 26 5.3 41.5
14:25 1020 30.12 850 25.1 26.8 80.2 24 4.9 40.9
14:30 1020 30.12 850 25.1 26.7 80 26 6 42.8
14:35 1020 30.12 849 25.07 26.8 80.2 24 4.9 40.9
14:40 1020 30.12 849 25.07 27.3 81.1 24 5.1 41.1
14:45 1020 30.12 849 25.07 27.7 81.9 24 5.4 41.8
14:50 1020 30.12 849 25.07 28.2 82.7 21 4.3 39.8
14:55 1020 30.12 849 25.07 28.4 83.1 21 4.3 39.7
15:00 1020 30.12 849 25.07 28.2 82.8 21 4.3 39.7
15:05 1020 30.12 849 25.07 28.8 83.9 20 4.1 39.5
15:10 1020 30.12 849 25.07 28.8 83.9 21 4.9 40.8
15:15 1020 30.12 849 25.07 28.9 84.1 21 4.5 40.2
15:20 1020 30.12 849 25.07 28.9 84.1 19 3.6 38.5
15:25 1020 30.12 849 25.07 28.9 84 19 3.4 38.2
15:30 1020 30.12 849 25.07 28.5 83.3 21 4.3 39.8
15:35 1020 30.12 849 25.07 28.5 83.3 20 3.5 38.4
15:40 1020 30.12 849 25.07 29.1 84.3 20 3.9 39
15:45 1020 30.12 849 25.07 29 84.2 20 3.8 38.8
15:50 1020 30.12 849 25.07 29.2 84.5 19 3.5 38.3
15:55 1020 30.12 849 25.07 29 84.1 20 4.2 39.5
16:00 1020 30.12 849 25.07 29.1 84.3 19 3.3 37.9
16:05 1020 30.12 849 25.07 28.8 83.9 19 3.5 38.4
16:10 1020 30.12 849 25.07 28.6 83.4 19 2.8 37.1
16:15 1020 30.12 849 25.07 28.2 82.7 20 3.2 37.8
16:20 1020 30.12 849 25.07 27.6 81.7 21 3.6 38.4
16:25 1020 30.12 849 25.07 27.3 81.1 21 3.6 38.4
16:30 1020 30.12 849 25.07 26.9 80.3 23 4.2 39.5
16:35 1020 30.12 849 25.07 27 80.6 22 4 39.3
16:40 1020 30.12 849 25.07 26.8 80.2 21 2.6 36.7
16:45 1020 30.12 849 25.07 26.5 79.7 24 4.7 40.5
16:50 1020 30.12 849 25.07 26.6 79.9 24 4.5 40.1
16:55 1020 30.12 849 25.07 26.5 79.7 24 4.3 39.8
17:00 1020 30.12 849 25.07 26.7 80 23 4.3 39.8
17:05 1020 30.12 849 25.07 27.1 80.7 22 4.1 39.3
17:10 1020 30.12 849 25.07 27.6 81.7 21 3.9 39
17:15 1020 30.12 849 25.07 27.6 81.7 21 3.4 38.1
17:20 1020 30.12 849 25.07 26.9 80.5 22 3.7 38.6
17:25 1020 30.12 849 25.07 26.7 80 22 3.4 38.2
17:30 1020 30.12 849 25.07 26.4 79.6 24 4.7 40.4
17:35 1020 30.12 849 25.07 26 78.8 26 5.5 42
17:40 1020 30.12 849 25.07 25.7 78.3 27 5.5 41.9
17:45 1020 30.12 849 25.07 25.8 78.4 27 5.8 42.4
17:50 1020 30.12 849 25.07 25.5 78 28 5.9 42.5
17:55 1020 30.12 849 25.07 25.4 77.7 27 5.4 41.7
18:00 1020 30.12 849 25.07 25.1 77.2 27 5 41
18:05 1020 30.12 849 25.07 25 77 27 5 41.1
18:10 1020 30.12 849 25.07 24.9 76.7 29 5.8 42.5
18:15 1020 30.12 849 25.07 24.4 75.9 30 6 42.8
18:20 1020 30.12 849 25.07 24.1 75.4 29 5.4 41.8
18:25 1020 30.12 849 25.07 24.2 75.6 29 5.4 41.6
18:30 1020 30.12 849 25.07 24.1 75.5 29 5.4 41.8
18:35 1020 30.12 849 25.07 24 75.3 29 5 40.9
18:40 1020 30.12 849 25.07 24.1 75.3 29 5.2 41.4
18:45 1020 30.12 849 25.07 24.1 75.4 29 5.4 41.7
18:50 1020 30.12 849 25.07 24.3 75.7 28 5 41
18:55 1020 30.12 849 25.07 24.5 76 28 5 41
19:00 1020 30.12 849 25.07 24.5 76.1 27 4.4 40
19:05 1020 30.12 849 25.07 24.7 76.4 27 4.8 40.7
19:10 1020 30.12 849 25.07 24.6 76.4 27 4.8 40.7
19:15 1020 30.12 849 25.07 24.7 76.5 27 4.5 40.2
19:20 1020 30.12 849 25.07 24.8 76.6 27 4.7 40.5
19:25 1020 30.12 849 25.07 24.8 76.6 27 4.7 40.5
19:30 1020 30.12 849 25.07 25.1 77.1 27 4.9 40.7
19:35 1020 30.12 849 25.07 25.1 77.2 26 4.5 40
19:40 1020 30.12 849 25.07 25.1 77.1 27 4.8 40.6
19:45 1020 30.12 849 25.07 25 76.9 25 4.1 39.4
19:50 1020 30.12 850 25.1 24.9 76.8 26 4.2 39.6
19:55 1020 30.12 850 25.1 24.8 76.6 26 4.1 39.4
20:00 1020 30.12 850 25.1 24.7 76.5 27 4.5 40.1
20:05 1020 30.12 850 25.1 24.6 76.2 31 6.7 44.1
20:10 1020 30.12 850 25.1 24 75.2 33 6.8 44.2
20:15 1020 30.12 850 25.1 23.7 74.6 33 6.8 44.2
20:20 1020 30.12 850 25.1 23.1 73.6 36 7.4 45.2
20:25 1021 30.15 850 25.1 22.5 72.4 37 7.4 45.3
20:30 1021 30.15 850 25.1 22 71.5 39 7.6 45.7
20:35 1021 30.15 850 25.1 21.4 70.6 43 8.5 47.2
20:40 1021 30.15 850 25.1 20.9 69.7 45 8.7 47.7
20:45 1021 30.15 850 25.1 20.8 69.5 44 8.4 47.1
20:50 1021 30.15 850 25.1 20.8 69.5 42 7.8 46
20:55 1021 30.15 850 25.1 20.7 69.2 43 7.7 45.9
21:00 1021 30.15 850 25.1 20.5 68.9 44 8 46.5
21:05 1021 30.15 850 25.1 20.2 68.4 43 7.3 45.2
21:10 1021 30.15 850 25.1 20 68 47 8.4 47
21:15 1021 30.15 850 25.1 19.9 67.9 49 9.1 48.3
21:20 1021 30.15 850 25.1 19.7 67.5 45 7.8 46
21:25 1021 30.15 850 25.1 19.6 67.2 51 9.2 48.6
21:30 1021 30.15 850 25.1 19.4 67 46 7.7 45.8
21:35 1021 30.15 850 25.1 19.2 66.5 47 7.8 46.1
21:40 1021 30.15 850 25.1 19.2 66.5 51 9 48.2
21:45 1021 30.15 850 25.1 19.2 66.5 48 8.1 46.6
21:50 1021 30.15 850 25.1 18.8 65.9 50 8.4 47
21:55 1021 30.15 850 25.1 18.6 65.4 49 7.8 46
22:00 1021 30.15 850 25.1 18.2 64.7 50 7.8 46
22:05 1021 30.15 850 25.1 18 64.3 50 7.6 45.7
22:10 1021 30.15 850 25.1 18.2 64.7 52 8.2 46.8
22:15 1021 30.15 850 25.1 18.3 64.9 47 6.8 44.3
22:20 1021 30.15 851 25.13 18.5 65.2 45 6.6 43.9
22:25 1021 30.15 850 25.1 18.9 65.9 42 6 42.8
22:30 1021 30.15 851 25.13 18.9 66 42 5.9 42.7
22:35 1021 30.15 851 25.13 19.2 66.5 40 5.4 41.8
22:40 1021 30.15 851 25.13 19.1 66.4 42 5.9 42.6
22:45 1021 30.15 851 25.13 18.9 66 42 6 42.8
22:50 1021 30.15 851 25.13 18.5 65.3 44 6 42.8
22:55 1021 30.15 851 25.13 18.2 64.8 45 6.4 43.5
23:00 1021 30.15 851 25.13 18 64.4 45 6.2 43.1
23:05 1021 30.15 851 25.13 17.9 64.2 45 6 42.8
23:10 1022 30.18 851 25.13 18 64.4 45 5.9 42.6
23:15 1022 30.18 851 25.13 18.1 64.6 44 5.7 42.3
23:20 1022 30.18 851 25.13 18.3 65 46 6.7 44.1
23:25 1022 30.18 851 25.13 18.2 64.8 44 5.8 42.5
23:30 1022 30.18 851 25.13 18.2 64.8 43 5.6 42
23:35 1022 30.18 851 25.13 18.2 64.7 46 6.6 43.8
23:40 1022 30.18 851 25.13 18.5 65.4 42 5.6 42.1
23:45 1022 30.18 851 25.13 18.7 65.6 43 6 42.9
23:50 1022 30.18 851 25.13 18.7 65.6 40 5.1 41.1
23:55 1022 30.18 851 25.13 18.9 66 42 5.9 42.6
24:00 1022 30.18 851 25.13 18.8 65.8 42 5.9 42.5